createdAt,value
2023-03-25T00:01:19.658Z,71.76
2023-03-25T00:03:50.446Z,71.42
2023-03-25T00:06:17.981Z,71.11
2023-03-25T00:08:45.480Z,71.42
2023-03-25T00:11:12.826Z,71.23
2023-03-25T00:13:40.803Z,71.18
2023-03-25T00:16:10.298Z,71.30
2023-03-25T00:18:37.847Z,71.83
2023-03-25T00:21:10.761Z,72.50
2023-03-25T00:23:39.448Z,71.93
2023-03-25T00:26:07.631Z,72.09
2023-03-25T00:28:37.190Z,72.57
2023-03-25T00:31:07.790Z,71.56
2023-03-25T00:33:35.617Z,71.25
2023-03-25T00:36:04.648Z,70.97
2023-03-25T00:38:35.184Z,70.75
2023-03-25T00:41:25.463Z,71.37
2023-03-25T00:44:00.062Z,72.04
2023-03-25T00:46:29.800Z,72.35
2023-03-25T00:48:58.538Z,72.22
2023-03-25T00:51:26.650Z,72.35
2023-03-25T00:53:56.909Z,71.93
2023-03-25T00:56:24.592Z,72.01
2023-03-25T00:58:52.376Z,72.24
2023-03-25T01:01:29.216Z,72.56
2023-03-25T01:03:58.893Z,72.56
2023-03-25T01:06:28.929Z,72.78
2023-03-25T01:08:57.565Z,72.60
2023-03-25T01:11:27.972Z,72.84
2023-03-25T01:13:57.156Z,73.38
2023-03-25T01:16:24.488Z,73.46
2023-03-25T01:18:51.940Z,73.10
2023-03-25T01:21:19.249Z,73.42
2023-03-25T01:23:46.516Z,73.06
2023-03-25T01:26:13.996Z,73.61
2023-03-25T01:28:42.856Z,73.64
2023-03-25T01:31:12.810Z,75.13
2023-03-25T01:33:40.627Z,76.04
2023-03-25T01:36:13.036Z,75.68
2023-03-25T01:38:41.014Z,76.00
2023-03-25T01:41:09.726Z,76.21
2023-03-25T01:43:37.390Z,75.85
2023-03-25T01:46:04.986Z,75.55
2023-03-25T01:48:37.909Z,75.26
2023-03-25T01:51:17.582Z,75.71
2023-03-25T01:53:45.008Z,75.67
2023-03-25T01:56:16.488Z,74.66
2023-03-25T01:58:43.992Z,75.40
2023-03-25T02:01:16.682Z,76.47
2023-03-25T02:03:51.213Z,76.78
2023-03-25T02:06:25.156Z,76.33
2023-03-25T02:08:53.571Z,76.88
2023-03-25T02:11:20.860Z,77.28
2023-03-25T02:13:48.136Z,78.07
2023-03-25T02:16:22.655Z,78.50
2023-03-25T02:19:18.492Z,79.20
2023-03-25T02:21:50.187Z,79.64
2023-03-25T02:24:43.298Z,79.49
2023-03-25T02:27:45.905Z,79.65
2023-03-25T02:30:34.689Z,78.70
2023-03-25T02:33:28.796Z,79.25
2023-03-25T02:36:30.069Z,79.55
2023-03-25T02:39:01.923Z,79.69
2023-03-25T02:41:39.965Z,79.31
2023-03-25T02:44:21.848Z,78.77
2023-03-25T02:46:53.384Z,79.06
2023-03-25T02:49:28.489Z,79.18
2023-03-25T02:51:59.634Z,79.48
2023-03-25T02:54:27.812Z,80.43
2023-03-25T02:56:57.587Z,79.83
2023-03-25T02:59:33.149Z,78.93
2023-03-25T03:02:03.757Z,78.14
2023-03-25T03:04:31.324Z,78.81
2023-03-25T03:06:58.661Z,78.22
2023-03-25T03:09:40.616Z,77.48
2023-03-25T03:12:36.603Z,77.76
2023-03-25T03:15:09.275Z,78.31
2023-03-25T03:18:12.991Z,78.54
2023-03-25T03:21:06.914Z,78.42
2023-03-25T03:23:49.300Z,78.88
2023-03-25T03:26:27.539Z,79.32
2023-03-25T03:29:05.814Z,78.65
2023-03-25T03:32:05.544Z,80.02
2023-03-25T03:34:44.836Z,78.93
2023-03-25T03:37:15.450Z,78.83
2023-03-25T03:39:44.470Z,78.10
2023-03-25T03:42:27.116Z,78.16
2023-03-25T03:44:58.842Z,78.85
2023-03-25T03:47:32.362Z,78.84
2023-03-25T03:50:04.869Z,79.29
2023-03-25T03:52:38.717Z,78.64
2023-03-25T03:55:14.077Z,77.43
2023-03-25T03:58:09.741Z,77.98
2023-03-25T04:00:43.087Z,78.15
2023-03-25T04:03:24.570Z,77.97
2023-03-25T04:05:56.453Z,78.09
2023-03-25T04:08:31.920Z,78.38
2023-03-25T04:11:03.873Z,78.32
2023-03-25T04:13:35.409Z,77.19
2023-03-25T04:16:03.174Z,76.83
2023-03-25T04:18:33.731Z,76.59
2023-03-25T04:21:01.301Z,76.64
2023-03-25T04:23:32.285Z,76.17
2023-03-25T04:26:03.018Z,76.18
2023-03-25T04:28:31.840Z,75.98
2023-03-25T04:31:00.749Z,75.48
2023-03-25T04:33:32.075Z,75.59
2023-03-25T04:36:02.097Z,75.55
2023-03-25T04:38:29.739Z,75.30
2023-03-25T04:40:58.288Z,74.63
2023-03-25T04:43:25.684Z,75.24
2023-03-25T04:45:55.783Z,74.91
2023-03-25T04:48:24.939Z,74.91
2023-03-25T04:50:52.899Z,73.99
2023-03-25T04:53:20.403Z,73.74
2023-03-25T04:55:50.614Z,74.03
2023-03-25T04:58:18.269Z,74.59
2023-03-25T05:00:50.170Z,74.88
2023-03-25T05:03:23.990Z,74.82
2023-03-25T05:05:53.525Z,73.96
2023-03-25T05:08:23.475Z,73.57
2023-03-25T05:10:50.717Z,72.89
2023-03-25T05:13:18.432Z,71.45
2023-03-25T05:15:45.638Z,71.61
2023-03-25T05:18:14.873Z,71.23
2023-03-25T05:20:45.066Z,71.46
2023-03-25T05:23:17.710Z,71.33
2023-03-25T05:25:47.450Z,71.02
2023-03-25T05:28:17.882Z,71.66
2023-03-25T05:30:46.557Z,70.35
2023-03-25T05:33:16.305Z,70.45
2023-03-25T05:35:44.601Z,71.59
2023-03-25T05:38:13.552Z,71.63
2023-03-25T05:40:41.316Z,71.00
2023-03-25T05:43:08.866Z,71.20
2023-03-25T05:45:36.547Z,70.43
2023-03-25T05:48:05.163Z,70.43
2023-03-25T05:50:32.586Z,70.27
2023-03-25T05:53:00.187Z,70.23
2023-03-25T05:55:28.026Z,70.36
2023-03-25T05:57:56.987Z,70.81
2023-03-25T06:00:24.655Z,71.65
2023-03-25T06:02:52.316Z,71.56
2023-03-25T06:05:23.881Z,70.75
2023-03-25T06:07:52.182Z,70.41
2023-03-25T06:10:19.707Z,70.79
2023-03-25T06:12:47.789Z,71.84
2023-03-25T06:15:21.460Z,72.75
2023-03-25T06:17:48.744Z,72.85
2023-03-25T06:20:16.696Z,73.29
2023-03-25T06:22:45.578Z,73.01
2023-03-25T06:25:17.641Z,73.72
2023-03-25T06:27:46.240Z,74.55
2023-03-25T06:30:15.955Z,74.52
2023-03-25T06:32:43.514Z,74.34
2023-03-25T06:35:11.831Z,74.66
2023-03-25T06:37:39.415Z,74.91
2023-03-25T06:40:13.832Z,75.73
2023-03-25T06:42:42.190Z,75.92
2023-03-25T06:45:33.477Z,75.19
2023-03-25T06:48:06.193Z,74.41
2023-03-25T06:50:33.587Z,73.23
2023-03-25T06:53:00.901Z,72.68
2023-03-25T06:55:28.167Z,73.11
2023-03-25T06:57:56.476Z,73.05
2023-03-25T07:00:26.797Z,73.46
2023-03-25T07:02:55.101Z,72.50
2023-03-25T07:05:22.621Z,72.18
2023-03-25T07:07:50.062Z,72.08
2023-03-25T07:10:17.469Z,72.26
2023-03-25T07:12:44.793Z,72.93
2023-03-25T07:15:12.074Z,72.29
2023-03-25T07:17:43.098Z,72.11
2023-03-25T07:20:12.973Z,71.07
2023-03-25T07:22:43.362Z,70.67
2023-03-25T07:25:10.700Z,70.17
2023-03-25T07:27:38.034Z,70.65
2023-03-25T07:30:10.156Z,70.45
2023-03-25T07:32:37.828Z,70.83
2023-03-25T07:35:06.422Z,69.64
2023-03-25T07:37:33.653Z,69.17
2023-03-25T07:40:01.215Z,68.90
2023-03-25T07:42:28.563Z,69.54
2023-03-25T07:45:14.310Z,68.84
2023-03-25T07:47:43.576Z,69.74
2023-03-25T07:50:11.198Z,69.63
2023-03-25T07:52:38.566Z,68.75
2023-03-25T07:55:06.478Z,68.64
2023-03-25T07:57:33.918Z,68.27
2023-03-25T08:00:01.284Z,67.81
2023-03-25T08:02:28.780Z,67.77
2023-03-25T08:04:57.514Z,67.13
2023-03-25T08:07:25.983Z,66.36
2023-03-25T08:09:56.950Z,65.54
2023-03-25T08:12:24.473Z,63.35
2023-03-25T08:14:51.940Z,65.33
2023-03-25T08:17:19.227Z,64.64
2023-03-25T08:19:46.606Z,62.15
2023-03-25T08:22:13.974Z,63.55
2023-03-25T08:24:41.590Z,63.40
2023-03-25T08:27:16.197Z,63.95
2023-03-25T08:29:44.767Z,63.57
2023-03-25T08:32:11.997Z,64.20
2023-03-25T08:34:41.910Z,63.13
2023-03-25T08:37:10.027Z,62.96
2023-03-25T08:39:40.064Z,63.84
2023-03-25T08:42:08.052Z,63.59
2023-03-25T08:44:35.634Z,63.44
2023-03-25T08:47:02.982Z,63.60
2023-03-25T08:49:30.483Z,62.57
2023-03-25T08:51:59.198Z,62.54
2023-03-25T08:54:27.300Z,62.14
2023-03-25T08:56:54.985Z,62.51
2023-03-25T08:59:22.295Z,59.45
2023-03-25T09:01:50.074Z,60.05
2023-03-25T09:04:17.382Z,60.51
2023-03-25T09:06:47.936Z,60.80
2023-03-25T09:09:31.960Z,61.45
2023-03-25T09:11:59.923Z,62.10
2023-03-25T09:14:27.333Z,62.38
2023-03-25T09:16:54.576Z,61.49
2023-03-25T09:19:21.892Z,61.33
2023-03-25T09:21:49.249Z,61.61
2023-03-25T09:24:16.546Z,60.27
2023-03-25T09:26:43.867Z,58.39
2023-03-25T09:29:11.168Z,57.71
2023-03-25T09:31:38.570Z,58.18
2023-03-25T09:34:06.470Z,57.63
2023-03-25T09:36:33.804Z,58.06
2023-03-25T09:39:01.344Z,57.32
2023-03-25T09:41:31.386Z,58.68
2023-03-25T09:44:06.953Z,58.00
2023-03-25T09:46:37.760Z,59.05
2023-03-25T09:49:06.045Z,58.56
2023-03-25T09:51:35.991Z,58.84
2023-03-25T09:54:25.982Z,58.87
2023-03-25T09:56:55.415Z,59.00
2023-03-25T09:59:24.112Z,58.55
2023-03-25T10:02:21.978Z,58.87
2023-03-25T10:05:11.316Z,59.52
2023-03-25T10:07:38.465Z,60.39
2023-03-25T10:10:13.559Z,60.63
2023-03-25T10:13:01.879Z,60.13
2023-03-25T10:16:04.581Z,59.28
2023-03-25T10:18:49.355Z,59.46
2023-03-25T10:21:24.473Z,59.49
2023-03-25T10:24:07.067Z,58.93
2023-03-25T10:27:04.222Z,59.67
2023-03-25T10:29:36.646Z,58.63
2023-03-25T10:32:07.705Z,57.62
2023-03-25T10:34:42.897Z,57.79
2023-03-25T10:37:12.485Z,58.67
2023-03-25T10:39:45.276Z,57.84
2023-03-25T10:42:29.298Z,57.34
2023-03-25T10:44:56.733Z,56.56
2023-03-25T10:47:27.214Z,57.38
2023-03-25T10:49:55.394Z,57.83
2023-03-25T10:52:22.906Z,57.37
2023-03-25T10:54:53.080Z,56.43
2023-03-25T10:57:21.942Z,56.22
2023-03-25T10:59:58.202Z,55.94
2023-03-25T11:02:28.157Z,55.57
2023-03-25T11:05:01.852Z,55.24
2023-03-25T11:07:37.584Z,54.58
2023-03-25T11:10:17.465Z,53.02
2023-03-25T11:12:48.498Z,52.54
2023-03-25T11:15:20.246Z,51.92
2023-03-25T11:17:48.839Z,52.40
2023-03-25T11:20:21.731Z,52.32
2023-03-25T11:22:51.953Z,52.07
2023-03-25T11:25:25.912Z,52.38
2023-03-25T11:27:56.542Z,51.92
2023-03-25T11:30:26.081Z,52.54
2023-03-25T11:33:27.209Z,52.48
2023-03-25T11:35:54.556Z,52.54
2023-03-25T11:38:32.418Z,52.67
2023-03-25T11:41:00.108Z,53.41
2023-03-25T11:43:33.640Z,54.26
2023-03-25T11:46:12.797Z,54.23
2023-03-25T11:48:42.062Z,54.38
2023-03-25T11:51:24.860Z,55.48
2023-03-25T11:53:58.071Z,56.56
2023-03-25T11:56:46.670Z,55.12
2023-03-25T11:59:44.810Z,55.74
2023-03-25T12:02:31.850Z,56.23
2023-03-25T12:05:02.884Z,56.48
2023-03-25T12:07:30.442Z,56.82
2023-03-25T12:09:59.846Z,56.61
2023-03-25T12:12:33.162Z,56.16
2023-03-25T12:15:47.411Z,55.28
2023-03-25T12:19:08.627Z,56.11
2023-03-25T12:21:42.687Z,55.96
2023-03-25T12:24:18.754Z,56.41
2023-03-25T12:27:05.035Z,56.10
2023-03-25T12:29:47.539Z,57.71
2023-03-25T12:32:29.678Z,61.46
2023-03-25T12:35:04.000Z,62.79
2023-03-25T12:37:31.352Z,61.87
2023-03-25T12:40:09.879Z,59.44
2023-03-25T12:42:47.482Z,58.93
2023-03-25T12:45:39.866Z,58.41
2023-03-25T12:48:10.562Z,55.21
2023-03-25T12:50:46.911Z,54.77
2023-03-25T12:53:27.916Z,54.40
2023-03-25T12:56:14.370Z,53.14
2023-03-25T12:58:55.971Z,53.26
2023-03-25T13:01:58.148Z,52.99
2023-03-25T13:04:49.206Z,53.63
2023-03-25T13:07:19.533Z,52.71
2023-03-25T13:10:23.798Z,52.37
2023-03-25T13:12:56.431Z,52.96
2023-03-25T13:15:28.074Z,53.58
2023-03-25T13:18:12.314Z,54.23
2023-03-25T13:20:43.318Z,55.42
2023-03-25T13:23:17.776Z,55.09
2023-03-25T13:25:49.585Z,55.63
2023-03-25T13:28:22.984Z,55.97
2023-03-25T13:30:50.722Z,55.96
2023-03-25T13:33:30.560Z,55.21
2023-03-25T13:36:37.981Z,54.77
2023-03-25T13:39:15.970Z,53.30
2023-03-25T13:41:52.314Z,52.95
2023-03-25T13:44:41.528Z,52.45
2023-03-25T13:47:19.665Z,51.55
2023-03-25T13:49:54.156Z,51.57
2023-03-25T13:52:22.118Z,51.38
2023-03-25T13:54:57.065Z,50.52
2023-03-25T13:57:30.172Z,50.76
2023-03-25T14:00:10.278Z,48.53
2023-03-25T14:03:11.085Z,48.18
2023-03-25T14:05:51.064Z,49.04
2023-03-25T14:08:36.841Z,48.17
2023-03-25T14:11:17.553Z,47.94
2023-03-25T14:13:55.831Z,48.56
2023-03-25T14:16:31.532Z,48.46
2023-03-25T14:19:03.038Z,49.29
2023-03-25T14:21:34.598Z,48.30
2023-03-25T14:24:18.861Z,48.62
2023-03-25T14:26:49.666Z,47.94
2023-03-25T14:29:35.686Z,47.65
2023-03-25T14:32:32.330Z,47.56
2023-03-25T14:35:34.212Z,47.65
2023-03-25T14:38:08.343Z,47.83
2023-03-25T14:40:47.406Z,46.52
2023-03-25T14:43:34.514Z,45.41
2023-03-25T14:46:06.392Z,44.96
2023-03-25T14:48:37.991Z,45.33
2023-03-25T14:51:10.893Z,45.18
2023-03-25T14:53:38.650Z,45.19
2023-03-25T14:56:11.726Z,45.04
2023-03-25T14:58:39.455Z,45.54
2023-03-25T15:01:11.506Z,45.33
2023-03-25T15:03:42.687Z,45.34
2023-03-25T15:06:17.021Z,44.79
2023-03-25T15:08:56.572Z,44.35
2023-03-25T15:11:33.473Z,45.04
2023-03-25T15:14:03.949Z,44.26
2023-03-25T15:16:47.657Z,43.93
2023-03-25T15:19:16.767Z,44.08
2023-03-25T15:22:01.429Z,44.61
2023-03-25T15:24:33.429Z,43.97
2023-03-25T15:27:29.627Z,43.87
2023-03-25T15:30:31.221Z,44.74
2023-03-25T15:33:31.023Z,44.64
2023-03-25T15:36:36.342Z,44.51
2023-03-25T15:39:31.623Z,45.13
2023-03-25T15:42:13.179Z,45.50
2023-03-25T15:45:09.774Z,44.21
2023-03-25T15:48:02.811Z,44.99
2023-03-25T15:51:06.070Z,44.13
2023-03-25T15:53:49.453Z,43.99
2023-03-25T15:56:22.042Z,43.78
2023-03-25T15:59:07.073Z,41.91
2023-03-25T16:01:36.112Z,41.59
2023-03-25T16:04:11.866Z,42.49
2023-03-25T16:06:46.954Z,42.73
2023-03-25T16:09:19.360Z,43.14
2023-03-25T16:11:50.707Z,42.15
2023-03-25T16:14:21.905Z,42.67
2023-03-25T16:16:57.116Z,42.35
2023-03-25T16:19:28.056Z,42.94
2023-03-25T16:21:55.491Z,42.26
2023-03-25T16:24:26.963Z,42.93
2023-03-25T16:26:54.435Z,42.38
2023-03-25T16:29:23.836Z,41.97
2023-03-25T16:31:57.825Z,43.02
2023-03-25T16:34:27.649Z,42.03
2023-03-25T16:36:57.354Z,42.65
2023-03-25T16:39:27.160Z,43.87
2023-03-25T16:42:07.861Z,43.66
2023-03-25T16:44:35.637Z,43.83
2023-03-25T16:47:03.444Z,43.54
2023-03-25T16:49:35.021Z,43.14
2023-03-25T16:52:09.418Z,43.63
2023-03-25T16:54:43.908Z,43.56
2023-03-25T16:57:17.458Z,43.79
2023-03-25T16:59:47.667Z,44.20
2023-03-25T17:02:27.010Z,44.41
2023-03-25T17:04:58.186Z,44.29
2023-03-25T17:07:27.932Z,44.11
2023-03-25T17:09:58.300Z,43.65
2023-03-25T17:12:27.918Z,44.02
2023-03-25T17:15:07.159Z,45.10
2023-03-25T17:17:51.457Z,44.44
2023-03-25T17:20:23.269Z,44.91
2023-03-25T17:23:08.255Z,45.06
2023-03-25T17:25:48.803Z,45.14
2023-03-25T17:28:40.500Z,45.05
2023-03-25T17:31:28.108Z,45.60
2023-03-25T17:34:20.057Z,45.57
2023-03-25T17:36:48.880Z,45.45
2023-03-25T17:39:30.605Z,45.39
2023-03-25T17:42:05.972Z,45.87
2023-03-25T17:44:39.868Z,45.58
2023-03-25T17:47:10.583Z,44.96
2023-03-25T17:49:37.890Z,44.57
2023-03-25T17:52:05.286Z,44.59
2023-03-25T17:54:32.678Z,44.31
2023-03-25T17:57:00.065Z,44.84
2023-03-25T17:59:27.728Z,45.08
2023-03-25T18:01:55.153Z,45.02
2023-03-25T18:04:22.553Z,45.18
2023-03-25T18:06:50.139Z,44.73
2023-03-25T18:09:20.552Z,45.69
2023-03-25T18:11:50.785Z,45.66
2023-03-25T18:14:18.646Z,45.79
2023-03-25T18:16:46.325Z,45.64
2023-03-25T18:19:17.445Z,46.13
2023-03-25T18:21:45.535Z,46.81
2023-03-25T18:24:13.805Z,46.85
2023-03-25T18:26:43.536Z,46.63
2023-03-25T18:29:16.945Z,46.72
2023-03-25T18:31:44.316Z,46.72
2023-03-25T18:34:13.195Z,46.85
2023-03-25T18:36:41.666Z,47.35
2023-03-25T18:39:17.340Z,47.82
2023-03-25T18:41:44.979Z,47.70
2023-03-25T18:44:13.135Z,47.85
2023-03-25T18:46:40.979Z,48.00
2023-03-25T18:49:16.940Z,48.18
2023-03-25T18:51:44.829Z,47.95
2023-03-25T18:54:12.687Z,48.09
2023-03-25T18:56:43.386Z,48.42
2023-03-25T18:59:12.106Z,48.74
2023-03-25T19:01:39.444Z,48.83
2023-03-25T19:04:06.874Z,49.28
2023-03-25T19:06:34.330Z,49.27
2023-03-25T19:09:01.855Z,49.82
2023-03-25T19:11:30.648Z,49.97
2023-03-25T19:13:58.035Z,50.12
2023-03-25T19:16:25.701Z,50.56
2023-03-25T19:18:53.936Z,51.51
2023-03-25T19:21:22.425Z,51.69
2023-03-25T19:23:49.801Z,51.72
2023-03-25T19:26:17.136Z,52.33
2023-03-25T19:28:44.509Z,52.44
2023-03-25T19:31:15.688Z,53.12
2023-03-25T19:33:43.291Z,53.36
2023-03-25T19:36:15.981Z,53.66
2023-03-25T19:38:43.296Z,53.90
2023-03-25T19:41:12.592Z,54.16
2023-03-25T19:43:40.077Z,54.70
2023-03-25T19:46:07.477Z,54.81
2023-03-25T19:48:35.526Z,55.88
2023-03-25T19:51:03.254Z,56.50
2023-03-25T19:53:30.552Z,56.64
2023-03-25T19:56:05.689Z,56.38
2023-03-25T19:58:34.846Z,56.51
2023-03-25T20:01:02.311Z,57.77
2023-03-25T20:03:32.256Z,58.23
2023-03-25T20:06:02.284Z,58.53
2023-03-25T20:08:30.545Z,58.77
2023-03-25T20:10:58.190Z,59.69
2023-03-25T20:13:25.835Z,59.77
2023-03-25T20:15:53.589Z,60.42
2023-03-25T20:18:21.365Z,60.86
2023-03-25T20:20:48.725Z,61.09
2023-03-25T20:23:16.135Z,61.15
2023-03-25T20:25:43.745Z,61.48
2023-03-25T20:28:11.538Z,62.03
2023-03-25T20:30:39.157Z,62.68
2023-03-25T20:33:06.535Z,62.93
2023-03-25T20:35:35.565Z,62.97
2023-03-25T20:38:03.530Z,63.13
2023-03-25T20:40:43.639Z,62.50
2023-03-25T20:43:16.313Z,63.20
2023-03-25T20:45:43.843Z,63.05
2023-03-25T20:48:11.470Z,63.81
2023-03-25T20:50:38.995Z,63.92
2023-03-25T20:53:06.766Z,64.31
2023-03-25T20:55:34.054Z,64.93
2023-03-25T20:58:01.651Z,64.59
2023-03-25T21:00:29.607Z,64.01
2023-03-25T21:02:57.779Z,64.02
2023-03-25T21:05:27.143Z,63.89
2023-03-25T21:07:54.538Z,63.85
2023-03-25T21:10:21.922Z,63.69
2023-03-25T21:12:49.236Z,63.70
2023-03-25T21:15:16.542Z,63.10
2023-03-25T21:17:44.238Z,62.85
2023-03-25T21:20:12.214Z,62.96
2023-03-25T21:22:43.140Z,62.42
2023-03-25T21:25:11.669Z,62.42
2023-03-25T21:27:40.040Z,62.04
2023-03-25T21:30:09.804Z,61.72
2023-03-25T21:32:40.528Z,62.29
2023-03-25T21:35:09.333Z,63.50
2023-03-25T21:37:40.348Z,64.71
2023-03-25T21:40:11.206Z,64.22
2023-03-25T21:42:41.441Z,64.00
2023-03-25T21:45:11.514Z,63.28
2023-03-25T21:47:40.066Z,63.31
2023-03-25T21:50:10.453Z,63.94
2023-03-25T21:52:43.476Z,63.52
2023-03-25T21:55:11.327Z,63.56
2023-03-25T21:57:39.996Z,62.88
2023-03-25T22:00:08.617Z,62.48
2023-03-25T22:02:43.640Z,63.13
2023-03-25T22:05:12.911Z,62.91
2023-03-25T22:07:40.775Z,62.75
2023-03-25T22:10:09.900Z,62.06
2023-03-25T22:12:37.176Z,61.90
2023-03-25T22:15:04.695Z,62.02
2023-03-25T22:17:32.048Z,61.22
2023-03-25T22:19:59.332Z,61.08
2023-03-25T22:22:26.639Z,61.61
2023-03-25T22:24:53.991Z,60.77
2023-03-25T22:27:21.414Z,60.93
2023-03-25T22:29:48.616Z,60.11
2023-03-25T22:32:16.278Z,60.39
2023-03-25T22:34:43.576Z,60.49
2023-03-25T22:37:10.891Z,60.43
2023-03-25T22:39:39.086Z,59.79
2023-03-25T22:42:06.451Z,59.06
2023-03-25T22:44:33.779Z,59.51
2023-03-25T22:47:01.103Z,59.05
2023-03-25T22:49:28.580Z,58.66
2023-03-25T22:51:56.017Z,58.68
2023-03-25T22:54:23.671Z,57.52
2023-03-25T22:56:51.153Z,56.72
2023-03-25T22:59:18.560Z,56.25
2023-03-25T23:01:45.994Z,56.30
2023-03-25T23:04:13.721Z,56.16
2023-03-25T23:06:41.883Z,55.58
2023-03-25T23:09:10.408Z,54.99
2023-03-25T23:11:38.260Z,54.91
2023-03-25T23:14:13.068Z,55.15
2023-03-25T23:16:41.806Z,54.35
2023-03-25T23:19:10.177Z,54.21
2023-03-25T23:21:38.405Z,54.05
2023-03-25T23:24:06.039Z,54.15
2023-03-25T23:26:39.320Z,54.72
2023-03-25T23:29:09.578Z,55.29
2023-03-25T23:31:38.395Z,55.60
2023-03-25T23:34:08.055Z,55.19
2023-03-25T23:36:36.860Z,56.00
2023-03-25T23:39:07.390Z,56.64
2023-03-25T23:41:35.456Z,56.59
2023-03-25T23:44:03.459Z,57.14
2023-03-25T23:46:31.273Z,57.52
2023-03-25T23:49:05.699Z,58.08
2023-03-25T23:51:36.409Z,58.48
2023-03-25T23:54:05.738Z,58.61
2023-03-25T23:56:33.426Z,58.68
2023-03-25T23:59:01.518Z,59.07
